sensor_id;sensor_type;location;lat;lon;timestamp;pressure;altitude;pressure_sealevel;temperature;humidity
72162;BME280;66366;51.646;5.842;2023-01-16T00:02:10;99490.0;;;18.8;48.5
72162;BME280;66366;51.646;5.842;2023-01-16T00:07:10;99490.0;;;18.7;48.5
72162;BME280;66366;51.646;5.842;2023-01-16T00:12:10;99470.0;;;18.7;48.5
72162;BME280;66366;51.646;5.842;2023-01-16T00:17:10;99470.0;;;18.7;48.5
72162;BME280;66366;51.646;5.842;2023-01-16T00:22:10;99460.0;;;18.7;48.5
72162;BME280;66366;51.646;5.842;2023-01-16T00:27:10;99450.0;;;18.7;48.5
72162;BME280;66366;51.646;5.842;2023-01-16T00:32:10;99450.0;;;18.7;48.5
72162;BME280;66366;51.646;5.842;2023-01-16T00:37:11;99450.0;;;18.7;48.5
72162;BME280;66366;51.646;5.842;2023-01-16T00:42:11;99440.0;;;18.8;48.5
72162;BME280;66366;51.646;5.842;2023-01-16T00:47:11;99440.0;;;18.7;48.5
72162;BME280;66366;51.646;5.842;2023-01-16T00:52:11;99430.0;;;18.7;48.5
72162;BME280;66366;51.646;5.842;2023-01-16T00:57:11;99420.0;;;18.7;48.5
72162;BME280;66366;51.646;5.842;2023-01-16T01:02:11;99420.0;;;18.7;48.5
72162;BME280;66366;51.646;5.842;2023-01-16T01:07:11;99410.0;;;18.7;48.5
72162;BME280;66366;51.646;5.842;2023-01-16T01:12:11;99400.0;;;18.7;48.5
72162;BME280;66366;51.646;5.842;2023-01-16T01:17:11;99400.0;;;18.7;48.5
72162;BME280;66366;51.646;5.842;2023-01-16T01:22:11;99390.0;;;18.7;48.5
72162;BME280;66366;51.646;5.842;2023-01-16T01:27:11;99390.0;;;18.7;48.5
72162;BME280;66366;51.646;5.842;2023-01-16T01:32:11;99380.0;;;18.7;48.5
72162;BME280;66366;51.646;5.842;2023-01-16T01:37:11;99360.0;;;18.7;48.5
72162;BME280;66366;51.646;5.842;2023-01-16T01:42:11;99360.0;;;18.7;48.5
72162;BME280;66366;51.646;5.842;2023-01-16T01:47:11;99330.0;;;18.8;48.5
72162;BME280;66366;51.646;5.842;2023-01-16T01:52:11;99330.0;;;18.7;48.5
72162;BME280;66366;51.646;5.842;2023-01-16T01:57:16;99320.0;;;18.7;48.5
72162;BME280;66366;51.646;5.842;2023-01-16T02:02:13;99310.0;;;18.7;48.5
72162;BME280;66366;51.646;5.842;2023-01-16T02:07:15;99290.0;;;18.7;48.5
72162;BME280;66366;51.646;5.842;2023-01-16T02:12:12;99270.0;;;18.7;48.5
72162;BME280;66366;51.646;5.842;2023-01-16T02:17:15;99270.0;;;18.7;48.5
72162;BME280;66366;51.646;5.842;2023-01-16T02:23:29;99260.0;;;18.7;48.5
72162;BME280;66366;51.646;5.842;2023-01-16T02:30:29;99250.0;;;18.7;48.5
72162;BME280;66366;51.646;5.842;2023-01-16T02:35:58;99230.0;;;18.7;48.5
72162;BME280;66366;51.646;5.842;2023-01-16T02:41:09;99210.0;;;18.7;48.5
72162;BME280;66366;51.646;5.842;2023-01-16T02:45:49;99210.0;;;18.7;48.5
72162;BME280;66366;51.646;5.842;2023-01-16T02:50:21;99200.0;;;18.7;48.5
72162;BME280;66366;51.646;5.842;2023-01-16T02:54:23;99200.0;;;18.7;48.5
72162;BME280;66366;51.646;5.842;2023-01-16T02:57:33;99180.0;;;18.7;48.5
72162;BME280;66366;51.646;5.842;2023-01-16T03:02:11;99170.0;;;18.7;48.5
72162;BME280;66366;51.646;5.842;2023-01-16T03:07:18;99150.0;;;18.7;48.5
72162;BME280;66366;51.646;5.842;2023-01-16T03:12:54;99130.0;;;18.7;48.5
72162;BME280;66366;51.646;5.842;2023-01-16T03:18:04;99120.0;;;18.7;48.5
72162;BME280;66366;51.646;5.842;2023-01-16T03:23:28;99120.0;;;18.7;48.5
72162;BME280;66366;51.646;5.842;2023-01-16T03:28:06;99090.0;;;18.7;48.5
72162;BME280;66366;51.646;5.842;2023-01-16T03:32:34;99090.0;;;18.7;48.5
72162;BME280;66366;51.646;5.842;2023-01-16T03:37:13;99070.0;;;18.7;48.5
72162;BME280;66366;51.646;5.842;2023-01-16T03:42:17;99060.0;;;18.7;48.5
72162;BME280;66366;51.646;5.842;2023-01-16T03:47:14;99050.0;;;18.7;48.5
72162;BME280;66366;51.646;5.842;2023-01-16T03:52:17;99050.0;;;18.7;48.5
72162;BME280;66366;51.646;5.842;2023-01-16T03:57:22;99020.0;;;18.7;48.5
72162;BME280;66366;51.646;5.842;2023-01-16T04:02:13;99010.0;;;18.7;48.5
72162;BME280;66366;51.646;5.842;2023-01-16T04:07:31;98990.0;;;18.7;48.5
72162;BME280;66366;51.646;5.842;2023-01-16T04:12:12;98980.0;;;18.6;48.5
72162;BME280;66366;51.646;5.842;2023-01-16T04:17:11;98960.0;;;18.7;48.5
72162;BME280;66366;51.646;5.842;2023-01-16T04:22:18;98940.0;;;18.7;48.5
72162;BME280;66366;51.646;5.842;2023-01-16T04:27:11;98920.0;;;18.7;48.5
72162;BME280;66366;51.646;5.842;2023-01-16T04:32:11;98910.0;;;18.7;48.5
72162;BME280;66366;51.646;5.842;2023-01-16T04:37:13;98890.0;;;18.7;48.5
72162;BME280;66366;51.646;5.842;2023-01-16T04:42:11;98880.0;;;18.7;48.5
72162;BME280;66366;51.646;5.842;2023-01-16T04:47:11;98860.0;;;18.6;48.5
72162;BME280;66366;51.646;5.842;2023-01-16T04:52:13;98840.0;;;18.6;48.5
72162;BME280;66366;51.646;5.842;2023-01-16T04:57:11;98830.0;;;18.7;48.5
72162;BME280;66366;51.646;5.842;2023-01-16T05:02:11;98810.0;;;18.7;48.5
72162;BME280;66366;51.646;5.842;2023-01-16T05:12:11;98780.0;;;18.7;48.5
72162;BME280;66366;51.646;5.842;2023-01-16T05:22:11;98750.0;;;18.7;48.5
72162;BME280;66366;51.646;5.842;2023-01-16T05:27:11;98730.0;;;18.6;48.5
72162;BME280;66366;51.646;5.842;2023-01-16T05:32:11;98710.0;;;18.6;48.5
72162;BME280;66366;51.646;5.842;2023-01-16T05:37:11;98700.0;;;18.6;48.5
72162;BME280;66366;51.646;5.842;2023-01-16T05:42:11;98680.0;;;18.6;48.5
72162;BME280;66366;51.646;5.842;2023-01-16T05:52:12;98660.0;;;18.7;48.5
72162;BME280;66366;51.646;5.842;2023-01-16T05:57:11;98640.0;;;18.7;48.5
72162;BME280;66366;51.646;5.842;2023-01-16T06:02:11;98610.0;;;18.6;48.5
72162;BME280;66366;51.646;5.842;2023-01-16T06:07:12;98590.0;;;18.6;48.5
72162;BME280;66366;51.646;5.842;2023-01-16T06:12:15;98580.0;;;18.6;48.5
72162;BME280;66366;51.646;5.842;2023-01-16T06:17:12;98560.0;;;18.6;48.5
72162;BME280;66366;51.646;5.842;2023-01-16T06:22:12;98550.0;;;18.6;48.5
72162;BME280;66366;51.646;5.842;2023-01-16T06:27:11;98540.0;;;18.6;48.5
72162;BME280;66366;51.646;5.842;2023-01-16T06:32:11;98530.0;;;18.6;48.5
72162;BME280;66366;51.646;5.842;2023-01-16T06:37:12;98530.0;;;18.7;48.5
72162;BME280;66366;51.646;5.842;2023-01-16T06:42:12;98540.0;;;18.7;48.5
72162;BME280;66366;51.646;5.842;2023-01-16T06:47:12;98510.0;;;18.7;48.5
72162;BME280;66366;51.646;5.842;2023-01-16T06:52:12;98500.0;;;18.7;48.5
72162;BME280;66366;51.646;5.842;2023-01-16T06:57:12;98480.0;;;18.6;48.5
72162;BME280;66366;51.646;5.842;2023-01-16T07:02:11;98480.0;;;18.6;48.5
72162;BME280;66366;51.646;5.842;2023-01-16T07:07:12;98460.0;;;18.6;48.5
72162;BME280;66366;51.646;5.842;2023-01-16T07:12:12;98450.0;;;18.6;48.5
72162;BME280;66366;51.646;5.842;2023-01-16T07:17:12;98420.0;;;18.6;48.5
72162;BME280;66366;51.646;5.842;2023-01-16T07:22:13;98380.0;;;18.6;48.5
72162;BME280;66366;51.646;5.842;2023-01-16T07:27:12;98360.0;;;18.6;48.5
72162;BME280;66366;51.646;5.842;2023-01-16T07:32:12;98330.0;;;18.6;48.5
72162;BME280;66366;51.646;5.842;2023-01-16T07:37:12;98320.0;;;18.6;48.5
72162;BME280;66366;51.646;5.842;2023-01-16T07:42:12;98300.0;;;18.7;48.5
72162;BME280;66366;51.646;5.842;2023-01-16T07:47:12;98300.0;;;18.6;48.5
72162;BME280;66366;51.646;5.842;2023-01-16T07:52:12;98290.0;;;18.6;48.5
72162;BME280;66366;51.646;5.842;2023-01-16T07:57:12;98270.0;;;18.6;48.5
72162;BME280;66366;51.646;5.842;2023-01-16T08:02:12;98270.0;;;18.7;48.5
72162;BME280;66366;51.646;5.842;2023-01-16T08:07:12;98230.0;;;18.6;48.5
72162;BME280;66366;51.646;5.842;2023-01-16T08:12:12;98220.0;;;18.6;48.5
72162;BME280;66366;51.646;5.842;2023-01-16T08:17:12;98210.0;;;18.6;48.5
72162;BME280;66366;51.646;5.842;2023-01-16T08:22:12;98200.0;;;18.6;48.5
72162;BME280;66366;51.646;5.842;2023-01-16T08:27:12;98180.0;;;18.7;48.5
72162;BME280;66366;51.646;5.842;2023-01-16T08:32:12;98170.0;;;18.6;48.5
72162;BME280;66366;51.646;5.842;2023-01-16T08:37:12;98160.0;;;18.6;48.5
72162;BME280;66366;51.646;5.842;2023-01-16T08:42:12;98140.0;;;18.6;48.5
72162;BME280;66366;51.646;5.842;2023-01-16T08:47:17;98130.0;;;18.6;48.5
72162;BME280;66366;51.646;5.842;2023-01-16T08:52:12;98120.0;;;18.6;48.5
72162;BME280;66366;51.646;5.842;2023-01-16T08:57:12;98110.0;;;18.6;48.5
72162;BME280;66366;51.646;5.842;2023-01-16T09:02:12;98100.0;;;18.6;48.5
72162;BME280;66366;51.646;5.842;2023-01-16T09:07:12;98100.0;;;18.6;48.5
72162;BME280;66366;51.646;5.842;2023-01-16T09:12:13;98090.0;;;18.6;48.5
72162;BME280;66366;51.646;5.842;2023-01-16T09:17:12;98100.0;;;18.6;48.5
72162;BME280;66366;51.646;5.842;2023-01-16T09:22:12;98080.0;;;18.6;48.5
72162;BME280;66366;51.646;5.842;2023-01-16T09:27:12;98080.0;;;18.7;48.5
72162;BME280;66366;51.646;5.842;2023-01-16T09:32:12;98080.0;;;18.6;48.5
72162;BME280;66366;51.646;5.842;2023-01-16T09:37:12;98080.0;;;18.6;48.5
72162;BME280;66366;51.646;5.842;2023-01-16T09:42:24;98070.0;;;18.6;48.5
72162;BME280;66366;51.646;5.842;2023-01-16T09:47:12;98070.0;;;18.7;48.5
72162;BME280;66366;51.646;5.842;2023-01-16T09:52:15;98060.0;;;18.6;48.5
72162;BME280;66366;51.646;5.842;2023-01-16T09:57:14;98060.0;;;18.6;48.5
72162;BME280;66366;51.646;5.842;2023-01-16T10:02:17;98060.0;;;18.6;48.5
72162;BME280;66366;51.646;5.842;2023-01-16T10:07:50;98040.0;;;18.6;48.5
72162;BME280;66366;51.646;5.842;2023-01-16T10:12:12;98020.0;;;18.6;48.5
72162;BME280;66366;51.646;5.842;2023-01-16T10:17:49;98010.0;;;18.6;48.5
72162;BME280;66366;51.646;5.842;2023-01-16T10:23:43;98010.0;;;18.6;48.5
72162;BME280;66366;51.646;5.842;2023-01-16T10:28:23;98000.0;;;18.6;48.5
72162;BME280;66366;51.646;5.842;2023-01-16T10:32:39;97990.0;;;18.6;48.5
72162;BME280;66366;51.646;5.842;2023-01-16T10:37:13;97980.0;;;18.6;48.5
72162;BME280;66366;51.646;5.842;2023-01-16T10:42:17;97970.0;;;18.7;48.5
72162;BME280;66366;51.646;5.842;2023-01-16T10:47:13;97960.0;;;18.6;48.5
72162;BME280;66366;51.646;5.842;2023-01-16T10:52:12;97950.0;;;18.7;48.5
72162;BME280;66366;51.646;5.842;2023-01-16T10:57:18;97940.0;;;18.6;48.5
72162;BME280;66366;51.646;5.842;2023-01-16T11:02:25;97920.0;;;18.6;48.5
72162;BME280;66366;51.646;5.842;2023-01-16T11:07:15;97920.0;;;18.6;48.5
72162;BME280;66366;51.646;5.842;2023-01-16T11:12:18;97900.0;;;18.6;48.5
72162;BME280;66366;51.646;5.842;2023-01-16T11:17:27;97880.0;;;18.6;48.5
72162;BME280;66366;51.646;5.842;2023-01-16T11:22:25;97870.0;;;18.6;48.5
72162;BME280;66366;51.646;5.842;2023-01-16T11:27:17;97860.0;;;18.6;48.5
72162;BME280;66366;51.646;5.842;2023-01-16T11:32:13;97850.0;;;18.6;48.5
72162;BME280;66366;51.646;5.842;2023-01-16T11:37:15;97840.0;;;18.7;48.5
72162;BME280;66366;51.646;5.842;2023-01-16T11:42:13;97830.0;;;18.7;48.5
72162;BME280;66366;51.646;5.842;2023-01-16T11:47:15;97810.0;;;18.7;48.5
72162;BME280;66366;51.646;5.842;2023-01-16T11:52:13;97810.0;;;18.7;48.5
72162;BME280;66366;51.646;5.842;2023-01-16T11:57:29;97800.0;;;18.7;48.5
72162;BME280;66366;51.646;5.842;2023-01-16T12:02:55;97780.0;;;18.7;48.5
72162;BME280;66366;51.646;5.842;2023-01-16T12:08:00;97770.0;;;18.7;48.5
72162;BME280;66366;51.646;5.842;2023-01-16T12:12:33;97760.0;;;18.6;48.5
72162;BME280;66366;51.646;5.842;2023-01-16T12:17:21;97760.0;;;18.7;48.5
72162;BME280;66366;51.646;5.842;2023-01-16T12:22:36;97740.0;;;18.6;48.5
72162;BME280;66366;51.646;5.842;2023-01-16T12:27:27;97740.0;;;18.6;48.5
72162;BME280;66366;51.646;5.842;2023-01-16T12:33:51;97720.0;;;18.6;48.5
72162;BME280;66366;51.646;5.842;2023-01-16T12:38:23;97710.0;;;18.6;48.5
72162;BME280;66366;51.646;5.842;2023-01-16T12:43:47;97700.0;;;18.6;48.5
72162;BME280;66366;51.646;5.842;2023-01-16T12:49:08;97690.0;;;18.6;48.5
72162;BME280;66366;51.646;5.842;2023-01-16T12:54:56;97680.0;;;18.5;48.5
72162;BME280;66366;51.646;5.842;2023-01-16T12:59:36;97670.0;;;18.5;49.0
72162;BME280;66366;51.646;5.842;2023-01-16T13:02:57;97670.0;;;18.5;49.0
72162;BME280;66366;51.646;5.842;2023-01-16T13:07:16;97670.0;;;18.5;49.0
72162;BME280;66366;51.646;5.842;2023-01-16T13:12:21;97660.0;;;18.4;49.0
72162;BME280;66366;51.646;5.842;2023-01-16T13:17:21;97650.0;;;18.5;49.0
72162;BME280;66366;51.646;5.842;2023-01-16T13:22:25;97640.0;;;18.5;49.0
72162;BME280;66366;51.646;5.842;2023-01-16T13:27:15;97640.0;;;18.5;49.0
72162;BME280;66366;51.646;5.842;2023-01-16T13:32:25;97640.0;;;18.5;49.0
72162;BME280;66366;51.646;5.842;2023-01-16T13:37:54;97630.0;;;18.5;49.0
72162;BME280;66366;51.646;5.842;2023-01-16T13:42:15;97630.0;;;18.5;49.0
72162;BME280;66366;51.646;5.842;2023-01-16T13:47:18;97630.0;;;18.5;49.0
72162;BME280;66366;51.646;5.842;2023-01-16T13:52:24;97620.0;;;18.5;48.5
72162;BME280;66366;51.646;5.842;2023-01-16T13:57:18;97620.0;;;18.5;48.5
72162;BME280;66366;51.646;5.842;2023-01-16T14:02:22;97610.0;;;18.5;48.5
72162;BME280;66366;51.646;5.842;2023-01-16T14:07:48;97600.0;;;18.5;48.5
72162;BME280;66366;51.646;5.842;2023-01-16T14:12:21;97610.0;;;18.5;48.5
72162;BME280;66366;51.646;5.842;2023-01-16T14:17:14;97590.0;;;18.5;48.5
72162;BME280;66366;51.646;5.842;2023-01-16T14:22:17;97590.0;;;18.5;48.5
72162;BME280;66366;51.646;5.842;2023-01-16T14:27:15;97590.0;;;18.5;48.5
72162;BME280;66366;51.646;5.842;2023-01-16T14:32:18;97590.0;;;18.5;48.5
72162;BME280;66366;51.646;5.842;2023-01-16T14:37:16;97590.0;;;18.5;48.5
72162;BME280;66366;51.646;5.842;2023-01-16T14:42:34;97580.0;;;18.5;48.5
72162;BME280;66366;51.646;5.842;2023-01-16T14:47:25;97580.0;;;18.5;48.5
72162;BME280;66366;51.646;5.842;2023-01-16T14:52:13;97580.0;;;18.5;48.5
72162;BME280;66366;51.646;5.842;2023-01-16T14:57:18;97580.0;;;18.5;48.5
72162;BME280;66366;51.646;5.842;2023-01-16T15:02:17;97570.0;;;18.5;49.0
72162;BME280;66366;51.646;5.842;2023-01-16T15:07:15;97570.0;;;18.5;49.0
72162;BME280;66366;51.646;5.842;2023-01-16T15:12:16;97560.0;;;18.5;49.0
72162;BME280;66366;51.646;5.842;2023-01-16T15:17:27;97570.0;;;18.5;49.0
72162;BME280;66366;51.646;5.842;2023-01-16T15:22:15;97570.0;;;18.5;49.0
72162;BME280;66366;51.646;5.842;2023-01-16T15:27:36;97570.0;;;18.5;49.0
72162;BME280;66366;51.646;5.842;2023-01-16T15:37:23;97570.0;;;18.5;49.0
72162;BME280;66366;51.646;5.842;2023-01-16T15:42:15;97560.0;;;18.5;49.0
72162;BME280;66366;51.646;5.842;2023-01-16T15:47:35;97550.0;;;18.5;49.0
72162;BME280;66366;51.646;5.842;2023-01-16T15:52:13;97560.0;;;18.5;49.0
72162;BME280;66366;51.646;5.842;2023-01-16T15:57:14;97560.0;;;18.5;49.0
72162;BME280;66366;51.646;5.842;2023-01-16T16:02:18;97560.0;;;18.5;49.0
72162;BME280;66366;51.646;5.842;2023-01-16T16:07:13;97570.0;;;18.5;49.0
72162;BME280;66366;51.646;5.842;2023-01-16T16:17:21;97570.0;;;18.5;49.0
72162;BME280;66366;51.646;5.842;2023-01-16T16:22:16;97570.0;;;18.5;49.0
72162;BME280;66366;51.646;5.842;2023-01-16T16:27:15;97570.0;;;18.5;49.0
72162;BME280;66366;51.646;5.842;2023-01-16T16:32:14;97570.0;;;18.5;49.0
72162;BME280;66366;51.646;5.842;2023-01-16T16:37:13;97570.0;;;18.5;49.0
72162;BME280;66366;51.646;5.842;2023-01-16T16:42:48;97570.0;;;18.5;49.0
72162;BME280;66366;51.646;5.842;2023-01-16T16:47:23;97570.0;;;18.5;49.0
72162;BME280;66366;51.646;5.842;2023-01-16T16:52:21;97570.0;;;18.5;49.0
72162;BME280;66366;51.646;5.842;2023-01-16T16:57:13;97580.0;;;18.5;49.0
72162;BME280;66366;51.646;5.842;2023-01-16T17:02:13;97580.0;;;18.5;49.0
72162;BME280;66366;51.646;5.842;2023-01-16T17:07:13;97590.0;;;18.5;49.0
72162;BME280;66366;51.646;5.842;2023-01-16T17:12:15;97590.0;;;18.4;49.0
72162;BME280;66366;51.646;5.842;2023-01-16T17:17:14;97600.0;;;18.4;49.0
72162;BME280;66366;51.646;5.842;2023-01-16T17:22:13;97600.0;;;18.4;49.0
72162;BME280;66366;51.646;5.842;2023-01-16T17:27:13;97600.0;;;18.4;49.0
72162;BME280;66366;51.646;5.842;2023-01-16T17:32:26;97600.0;;;18.4;49.0
72162;BME280;66366;51.646;5.842;2023-01-16T17:37:13;97610.0;;;18.4;49.0
72162;BME280;66366;51.646;5.842;2023-01-16T17:42:13;97620.0;;;18.4;49.5
72162;BME280;66366;51.646;5.842;2023-01-16T17:47:13;97610.0;;;18.3;49.5
72162;BME280;66366;51.646;5.842;2023-01-16T17:52:13;97610.0;;;18.3;49.5
72162;BME280;66366;51.646;5.842;2023-01-16T17:57:13;97610.0;;;18.3;49.5
72162;BME280;66366;51.646;5.842;2023-01-16T18:02:13;97610.0;;;18.3;49.5
72162;BME280;66366;51.646;5.842;2023-01-16T18:07:13;97620.0;;;18.3;49.5
72162;BME280;66366;51.646;5.842;2023-01-16T18:12:13;97630.0;;;18.3;49.5
72162;BME280;66366;51.646;5.842;2023-01-16T18:17:15;97630.0;;;18.3;49.5
72162;BME280;66366;51.646;5.842;2023-01-16T18:22:14;97640.0;;;18.3;49.5
72162;BME280;66366;51.646;5.842;2023-01-16T18:27:16;97650.0;;;18.3;49.5
72162;BME280;66366;51.646;5.842;2023-01-16T18:32:14;97660.0;;;18.3;49.5
72162;BME280;66366;51.646;5.842;2023-01-16T18:37:14;97690.0;;;18.3;49.5
72162;BME280;66366;51.646;5.842;2023-01-16T18:42:13;97680.0;;;18.3;49.0
72162;BME280;66366;51.646;5.842;2023-01-16T18:47:14;97690.0;;;18.3;49.0
72162;BME280;66366;51.646;5.842;2023-01-16T18:52:15;97710.0;;;18.3;49.0
72162;BME280;66366;51.646;5.842;2023-01-16T18:57:14;97710.0;;;18.3;49.0
72162;BME280;66366;51.646;5.842;2023-01-16T19:02:39;97710.0;;;18.3;49.0
72162;BME280;66366;51.646;5.842;2023-01-16T19:07:22;97720.0;;;18.3;49.0
72162;BME280;66366;51.646;5.842;2023-01-16T19:12:14;97720.0;;;18.3;49.0
72162;BME280;66366;51.646;5.842;2023-01-16T19:17:13;97740.0;;;18.3;49.0
72162;BME280;66366;51.646;5.842;2023-01-16T19:22:14;97740.0;;;18.3;49.0
72162;BME280;66366;51.646;5.842;2023-01-16T19:27:14;97740.0;;;18.3;49.0
72162;BME280;66366;51.646;5.842;2023-01-16T19:32:14;97750.0;;;18.3;49.0
72162;BME280;66366;51.646;5.842;2023-01-16T19:37:14;97760.0;;;18.3;49.0
72162;BME280;66366;51.646;5.842;2023-01-16T19:42:14;97780.0;;;18.3;49.0
72162;BME280;66366;51.646;5.842;2023-01-16T19:47:14;97780.0;;;18.3;49.0
72162;BME280;66366;51.646;5.842;2023-01-16T19:52:13;97800.0;;;18.3;49.0
72162;BME280;66366;51.646;5.842;2023-01-16T19:57:14;97790.0;;;18.3;49.0
72162;BME280;66366;51.646;5.842;2023-01-16T20:02:14;97810.0;;;18.3;49.0
72162;BME280;66366;51.646;5.842;2023-01-16T20:12:14;97830.0;;;18.3;49.0
72162;BME280;66366;51.646;5.842;2023-01-16T20:17:14;97850.0;;;18.4;48.5
72162;BME280;66366;51.646;5.842;2023-01-16T20:22:14;97850.0;;;18.4;48.5
72162;BME280;66366;51.646;5.842;2023-01-16T20:27:14;97850.0;;;18.4;48.5
72162;BME280;66366;51.646;5.842;2023-01-16T20:32:14;97860.0;;;18.4;48.5
72162;BME280;66366;51.646;5.842;2023-01-16T20:37:14;97870.0;;;18.4;48.5
72162;BME280;66366;51.646;5.842;2023-01-16T20:42:14;97880.0;;;18.4;48.5
72162;BME280;66366;51.646;5.842;2023-01-16T20:47:16;97890.0;;;18.4;48.5
72162;BME280;66366;51.646;5.842;2023-01-16T20:52:15;97900.0;;;18.4;48.5
72162;BME280;66366;51.646;5.842;2023-01-16T20:57:14;97910.0;;;18.4;48.5
72162;BME280;66366;51.646;5.842;2023-01-16T21:02:14;97910.0;;;18.4;48.5
72162;BME280;66366;51.646;5.842;2023-01-16T21:07:14;97910.0;;;18.4;48.5
72162;BME280;66366;51.646;5.842;2023-01-16T21:12:14;97920.0;;;18.4;48.5
72162;BME280;66366;51.646;5.842;2023-01-16T21:17:14;97930.0;;;18.4;48.5
72162;BME280;66366;51.646;5.842;2023-01-16T21:22:15;97950.0;;;18.4;48.5
72162;BME280;66366;51.646;5.842;2023-01-16T21:27:14;97950.0;;;18.4;48.5
72162;BME280;66366;51.646;5.842;2023-01-16T21:32:14;97950.0;;;18.4;48.5
72162;BME280;66366;51.646;5.842;2023-01-16T21:37:15;97950.0;;;18.4;48.5
72162;BME280;66366;51.646;5.842;2023-01-16T21:42:14;97960.0;;;18.4;48.5
72162;BME280;66366;51.646;5.842;2023-01-16T21:47:14;97960.0;;;18.5;48.5
72162;BME280;66366;51.646;5.842;2023-01-16T21:52:14;97960.0;;;18.5;48.5
72162;BME280;66366;51.646;5.842;2023-01-16T21:57:14;97960.0;;;18.5;48.5
72162;BME280;66366;51.646;5.842;2023-01-16T22:02:14;97970.0;;;18.4;48.5
72162;BME280;66366;51.646;5.842;2023-01-16T22:07:14;97980.0;;;18.4;48.5
72162;BME280;66366;51.646;5.842;2023-01-16T22:12:14;97990.0;;;18.4;48.5
72162;BME280;66366;51.646;5.842;2023-01-16T22:17:15;97990.0;;;18.4;48.5
72162;BME280;66366;51.646;5.842;2023-01-16T22:22:14;97990.0;;;18.4;48.5
72162;BME280;66366;51.646;5.842;2023-01-16T22:27:14;98010.0;;;18.4;48.5
72162;BME280;66366;51.646;5.842;2023-01-16T22:32:14;98020.0;;;18.4;48.5
72162;BME280;66366;51.646;5.842;2023-01-16T22:37:14;98040.0;;;18.4;48.5
72162;BME280;66366;51.646;5.842;2023-01-16T22:42:17;98050.0;;;18.4;48.5
72162;BME280;66366;51.646;5.842;2023-01-16T22:47:15;98050.0;;;18.4;48.5
72162;BME280;66366;51.646;5.842;2023-01-16T22:52:14;98060.0;;;18.4;48.5
72162;BME280;66366;51.646;5.842;2023-01-16T22:57:14;98070.0;;;18.4;48.5
72162;BME280;66366;51.646;5.842;2023-01-16T23:02:14;98080.0;;;18.4;48.5
72162;BME280;66366;51.646;5.842;2023-01-16T23:07:14;98090.0;;;18.4;48.5
72162;BME280;66366;51.646;5.842;2023-01-16T23:12:14;98080.0;;;18.4;48.5
72162;BME280;66366;51.646;5.842;2023-01-16T23:17:14;98100.0;;;18.4;48.5
72162;BME280;66366;51.646;5.842;2023-01-16T23:22:14;98120.0;;;18.4;48.5
72162;BME280;66366;51.646;5.842;2023-01-16T23:27:14;98140.0;;;18.4;48.5
72162;BME280;66366;51.646;5.842;2023-01-16T23:32:14;98150.0;;;18.4;48.5
72162;BME280;66366;51.646;5.842;2023-01-16T23:37:14;98160.0;;;18.4;48.0
72162;BME280;66366;51.646;5.842;2023-01-16T23:42:14;98160.0;;;18.4;48.0
72162;BME280;66366;51.646;5.842;2023-01-16T23:47:16;98170.0;;;18.4;48.5
72162;BME280;66366;51.646;5.842;2023-01-16T23:52:16;98160.0;;;18.4;48.5
72162;BME280;66366;51.646;5.842;2023-01-16T23:57:17;98160.0;;;18.4;48.5
